sensor_id;sensor_type;location;lat;lon;timestamp;P1;durP1;ratioP1;P2;durP2;ratioP2
2111;SDS011;1062;52.538;13.400;2022-11-20T00:01:08;14.27;;;9.60;;
2111;SDS011;1062;52.538;13.400;2022-11-20T00:03:35;10.83;;;7.83;;
2111;SDS011;1062;52.538;13.400;2022-11-20T00:06:02;13.00;;;8.17;;
2111;SDS011;1062;52.538;13.400;2022-11-20T00:08:28;13.00;;;8.50;;
2111;SDS011;1062;52.538;13.400;2022-11-20T00:10:54;12.27;;;7.83;;
2111;SDS011;1062;52.538;13.400;2022-11-20T00:13:19;14.33;;;9.07;;
2111;SDS011;1062;52.538;13.400;2022-11-20T00:15:45;12.57;;;8.00;;
2111;SDS011;1062;52.538;13.400;2022-11-20T00:18:11;14.57;;;8.47;;
2111;SDS011;1062;52.538;13.400;2022-11-20T00:20:36;10.90;;;6.90;;
2111;SDS011;1062;52.538;13.400;2022-11-20T00:23:02;13.10;;;8.70;;
2111;SDS011;1062;52.538;13.400;2022-11-20T00:25:27;9.30;;;7.20;;
2111;SDS011;1062;52.538;13.400;2022-11-20T00:27:53;11.67;;;8.27;;
2111;SDS011;1062;52.538;13.400;2022-11-20T00:30:18;14.47;;;8.17;;
2111;SDS011;1062;52.538;13.400;2022-11-20T00:32:44;12.60;;;7.20;;
2111;SDS011;1062;52.538;13.400;2022-11-20T00:35:09;14.77;;;8.70;;
2111;SDS011;1062;52.538;13.400;2022-11-20T00:37:35;9.13;;;7.20;;
2111;SDS011;1062;52.538;13.400;2022-11-20T00:40:01;11.53;;;8.23;;
2111;SDS011;1062;52.538;13.400;2022-11-20T00:42:26;10.30;;;6.60;;
2111;SDS011;1062;52.538;13.400;2022-11-20T00:44:52;10.07;;;7.77;;
2111;SDS011;1062;52.538;13.400;2022-11-20T00:47:17;12.93;;;7.57;;
2111;SDS011;1062;52.538;13.400;2022-11-20T00:49:43;16.40;;;9.90;;
2111;SDS011;1062;52.538;13.400;2022-11-20T00:52:09;14.90;;;8.33;;
2111;SDS011;1062;52.538;13.400;2022-11-20T00:54:34;13.00;;;7.03;;
2111;SDS011;1062;52.538;13.400;2022-11-20T00:57:00;13.80;;;7.93;;
2111;SDS011;1062;52.538;13.400;2022-11-20T00:59:25;11.53;;;6.80;;
2111;SDS011;1062;52.538;13.400;2022-11-20T01:01:51;12.13;;;7.80;;
2111;SDS011;1062;52.538;13.400;2022-11-20T01:04:16;11.43;;;7.63;;
2111;SDS011;1062;52.538;13.400;2022-11-20T01:06:42;8.93;;;6.50;;
2111;SDS011;1062;52.538;13.400;2022-11-20T01:09:12;10.43;;;7.50;;
2111;SDS011;1062;52.538;13.400;2022-11-20T01:11:40;11.20;;;7.70;;
2111;SDS011;1062;52.538;13.400;2022-11-20T01:14:10;14.43;;;8.60;;
2111;SDS011;1062;52.538;13.400;2022-11-20T01:16:41;9.63;;;6.90;;
2111;SDS011;1062;52.538;13.400;2022-11-20T01:19:12;9.80;;;7.03;;
2111;SDS011;1062;52.538;13.400;2022-11-20T01:21:43;11.10;;;7.93;;
2111;SDS011;1062;52.538;13.400;2022-11-20T01:24:14;12.20;;;7.90;;
2111;SDS011;1062;52.538;13.400;2022-11-20T01:26:41;11.40;;;8.57;;
2111;SDS011;1062;52.538;13.400;2022-11-20T01:29:15;20.70;;;10.13;;
2111;SDS011;1062;52.538;13.400;2022-11-20T01:31:46;16.20;;;9.70;;
2111;SDS011;1062;52.538;13.400;2022-11-20T01:34:13;11.10;;;7.90;;
2111;SDS011;1062;52.538;13.400;2022-11-20T01:36:40;11.83;;;7.70;;
2111;SDS011;1062;52.538;13.400;2022-11-20T01:39:11;13.37;;;9.90;;
2111;SDS011;1062;52.538;13.400;2022-11-20T01:41:41;12.07;;;7.20;;
2111;SDS011;1062;52.538;13.400;2022-11-20T01:50:12;11.10;;;6.90;;
2111;SDS011;1062;52.538;13.400;2022-11-20T01:52:41;10.70;;;7.27;;
2111;SDS011;1062;52.538;13.400;2022-11-20T01:55:22;16.80;;;8.00;;
2111;SDS011;1062;52.538;13.400;2022-11-20T01:57:51;12.00;;;6.73;;
2111;SDS011;1062;52.538;13.400;2022-11-20T02:00:18;10.37;;;7.53;;
2111;SDS011;1062;52.538;13.400;2022-11-20T02:02:46;11.97;;;8.03;;
2111;SDS011;1062;52.538;13.400;2022-11-20T02:08:27;20.93;;;10.07;;
2111;SDS011;1062;52.538;13.400;2022-11-20T02:10:53;11.33;;;9.43;;
2111;SDS011;1062;52.538;13.400;2022-11-20T02:13:19;14.47;;;9.40;;
2111;SDS011;1062;52.538;13.400;2022-11-20T02:16:03;12.10;;;8.20;;
2111;SDS011;1062;52.538;13.400;2022-11-20T02:18:33;17.10;;;7.30;;
2111;SDS011;1062;52.538;13.400;2022-11-20T02:21:01;14.73;;;7.80;;
2111;SDS011;1062;52.538;13.400;2022-11-20T02:26:31;13.70;;;8.00;;
2111;SDS011;1062;52.538;13.400;2022-11-20T02:30:02;13.53;;;8.53;;
2111;SDS011;1062;52.538;13.400;2022-11-20T02:32:24;11.67;;;7.93;;
2111;SDS011;1062;52.538;13.400;2022-11-20T02:34:52;11.70;;;9.03;;
2111;SDS011;1062;52.538;13.400;2022-11-20T02:37:18;13.70;;;9.00;;
2111;SDS011;1062;52.538;13.400;2022-11-20T02:39:44;11.10;;;7.70;;
2111;SDS011;1062;52.538;13.400;2022-11-20T02:42:12;13.07;;;8.00;;
2111;SDS011;1062;52.538;13.400;2022-11-20T02:44:38;13.70;;;9.40;;
2111;SDS011;1062;52.538;13.400;2022-11-20T02:47:04;12.93;;;8.83;;
2111;SDS011;1062;52.538;13.400;2022-11-20T02:49:30;13.33;;;8.60;;
2111;SDS011;1062;52.538;13.400;2022-11-20T02:51:55;11.70;;;9.10;;
2111;SDS011;1062;52.538;13.400;2022-11-20T02:54:21;15.50;;;8.57;;
2111;SDS011;1062;52.538;13.400;2022-11-20T02:56:47;14.80;;;8.90;;
2111;SDS011;1062;52.538;13.400;2022-11-20T02:59:12;15.37;;;9.77;;
2111;SDS011;1062;52.538;13.400;2022-11-20T03:01:38;15.17;;;11.13;;
2111;SDS011;1062;52.538;13.400;2022-11-20T03:04:04;10.33;;;8.73;;
2111;SDS011;1062;52.538;13.400;2022-11-20T03:06:29;13.33;;;8.10;;
2111;SDS011;1062;52.538;13.400;2022-11-20T03:08:55;13.53;;;9.70;;
2111;SDS011;1062;52.538;13.400;2022-11-20T03:11:20;20.13;;;9.60;;
2111;SDS011;1062;52.538;13.400;2022-11-20T03:13:46;12.50;;;8.33;;
2111;SDS011;1062;52.538;13.400;2022-11-20T03:16:13;11.70;;;8.00;;
2111;SDS011;1062;52.538;13.400;2022-11-20T03:18:40;13.37;;;8.43;;
2111;SDS011;1062;52.538;13.400;2022-11-20T03:21:07;11.57;;;9.80;;
2111;SDS011;1062;52.538;13.400;2022-11-20T03:23:34;10.97;;;8.90;;
2111;SDS011;1062;52.538;13.400;2022-11-20T03:26:13;15.30;;;9.80;;
2111;SDS011;1062;52.538;13.400;2022-11-20T03:29:03;14.87;;;10.17;;
2111;SDS011;1062;52.538;13.400;2022-11-20T03:31:33;14.23;;;8.90;;
2111;SDS011;1062;52.538;13.400;2022-11-20T03:34:00;15.10;;;9.40;;
2111;SDS011;1062;52.538;13.400;2022-11-20T03:36:27;15.30;;;8.33;;
2111;SDS011;1062;52.538;13.400;2022-11-20T03:38:54;11.83;;;9.73;;
2111;SDS011;1062;52.538;13.400;2022-11-20T03:41:22;10.47;;;8.00;;
2111;SDS011;1062;52.538;13.400;2022-11-20T03:43:50;13.17;;;10.10;;
2111;SDS011;1062;52.538;13.400;2022-11-20T03:46:17;18.10;;;10.10;;
2111;SDS011;1062;52.538;13.400;2022-11-20T03:48:43;17.50;;;10.43;;
2111;SDS011;1062;52.538;13.400;2022-11-20T03:51:15;15.20;;;10.20;;
2111;SDS011;1062;52.538;13.400;2022-11-20T03:53:43;20.00;;;9.63;;
2111;SDS011;1062;52.538;13.400;2022-11-20T03:56:10;14.87;;;8.80;;
2111;SDS011;1062;52.538;13.400;2022-11-20T03:58:38;12.37;;;9.80;;
2111;SDS011;1062;52.538;13.400;2022-11-20T04:01:06;13.13;;;9.50;;
2111;SDS011;1062;52.538;13.400;2022-11-20T04:03:32;15.70;;;10.30;;
2111;SDS011;1062;52.538;13.400;2022-11-20T04:06:02;12.60;;;8.27;;
2111;SDS011;1062;52.538;13.400;2022-11-20T04:08:29;15.23;;;9.40;;
2111;SDS011;1062;52.538;13.400;2022-11-20T04:10:55;16.20;;;10.53;;
2111;SDS011;1062;52.538;13.400;2022-11-20T04:13:21;13.13;;;8.67;;
2111;SDS011;1062;52.538;13.400;2022-11-20T04:15:46;16.90;;;10.83;;
2111;SDS011;1062;52.538;13.400;2022-11-20T04:18:12;12.70;;;9.40;;
2111;SDS011;1062;52.538;13.400;2022-11-20T04:20:37;16.23;;;9.50;;
2111;SDS011;1062;52.538;13.400;2022-11-20T04:23:03;12.70;;;8.27;;
2111;SDS011;1062;52.538;13.400;2022-11-20T04:25:28;18.67;;;10.43;;
2111;SDS011;1062;52.538;13.400;2022-11-20T04:27:54;15.60;;;9.70;;
2111;SDS011;1062;52.538;13.400;2022-11-20T04:30:20;14.07;;;8.77;;
2111;SDS011;1062;52.538;13.400;2022-11-20T04:32:45;13.73;;;10.67;;
2111;SDS011;1062;52.538;13.400;2022-11-20T04:35:11;12.93;;;8.13;;
2111;SDS011;1062;52.538;13.400;2022-11-20T04:37:36;13.87;;;9.70;;
2111;SDS011;1062;52.538;13.400;2022-11-20T04:40:02;12.80;;;9.57;;
2111;SDS011;1062;52.538;13.400;2022-11-20T04:42:28;14.50;;;9.67;;
2111;SDS011;1062;52.538;13.400;2022-11-20T04:44:53;19.60;;;10.83;;
2111;SDS011;1062;52.538;13.400;2022-11-20T04:47:19;12.57;;;8.73;;
2111;SDS011;1062;52.538;13.400;2022-11-20T04:49:45;14.80;;;8.03;;
2111;SDS011;1062;52.538;13.400;2022-11-20T04:52:11;11.20;;;8.07;;
2111;SDS011;1062;52.538;13.400;2022-11-20T04:54:36;15.03;;;10.53;;
2111;SDS011;1062;52.538;13.400;2022-11-20T04:57:02;17.30;;;10.40;;
2111;SDS011;1062;52.538;13.400;2022-11-20T04:59:28;15.13;;;8.43;;
2111;SDS011;1062;52.538;13.400;2022-11-20T05:01:53;14.87;;;9.97;;
2111;SDS011;1062;52.538;13.400;2022-11-20T05:04:19;13.13;;;8.80;;
2111;SDS011;1062;52.538;13.400;2022-11-20T05:06:44;15.90;;;7.87;;
2111;SDS011;1062;52.538;13.400;2022-11-20T05:09:10;15.00;;;10.00;;
2111;SDS011;1062;52.538;13.400;2022-11-20T05:11:37;13.70;;;9.37;;
2111;SDS011;1062;52.538;13.400;2022-11-20T05:14:02;16.10;;;9.10;;
2111;SDS011;1062;52.538;13.400;2022-11-20T05:16:28;19.53;;;12.30;;
2111;SDS011;1062;52.538;13.400;2022-11-20T05:18:54;13.97;;;10.83;;
2111;SDS011;1062;52.538;13.400;2022-11-20T05:21:20;15.60;;;8.90;;
2111;SDS011;1062;52.538;13.400;2022-11-20T05:23:46;17.47;;;11.90;;
2111;SDS011;1062;52.538;13.400;2022-11-20T05:26:16;18.80;;;9.40;;
2111;SDS011;1062;52.538;13.400;2022-11-20T05:28:43;13.30;;;9.97;;
2111;SDS011;1062;52.538;13.400;2022-11-20T05:31:10;12.37;;;9.50;;
2111;SDS011;1062;52.538;13.400;2022-11-20T05:33:41;14.63;;;8.80;;
2111;SDS011;1062;52.538;13.400;2022-11-20T05:36:08;16.73;;;9.37;;
2111;SDS011;1062;52.538;13.400;2022-11-20T05:38:34;16.40;;;10.57;;
2111;SDS011;1062;52.538;13.400;2022-11-20T05:41:15;13.93;;;9.97;;
2111;SDS011;1062;52.538;13.400;2022-11-20T05:43:43;14.93;;;8.97;;
2111;SDS011;1062;52.538;13.400;2022-11-20T05:46:10;10.93;;;8.43;;
2111;SDS011;1062;52.538;13.400;2022-11-20T05:48:38;15.97;;;9.17;;
2111;SDS011;1062;52.538;13.400;2022-11-20T05:51:06;16.90;;;9.03;;
2111;SDS011;1062;52.538;13.400;2022-11-20T05:53:34;13.87;;;8.43;;
2111;SDS011;1062;52.538;13.400;2022-11-20T05:56:01;18.73;;;10.27;;
2111;SDS011;1062;52.538;13.400;2022-11-20T05:58:32;21.63;;;10.20;;
2111;SDS011;1062;52.538;13.400;2022-11-20T06:03:30;13.67;;;7.73;;
2111;SDS011;1062;52.538;13.400;2022-11-20T06:05:55;14.13;;;9.70;;
2111;SDS011;1062;52.538;13.400;2022-11-20T06:08:21;13.87;;;9.40;;
2111;SDS011;1062;52.538;13.400;2022-11-20T06:10:46;12.17;;;9.03;;
2111;SDS011;1062;52.538;13.400;2022-11-20T06:13:12;15.07;;;8.97;;
2111;SDS011;1062;52.538;13.400;2022-11-20T06:15:37;14.83;;;8.83;;
2111;SDS011;1062;52.538;13.400;2022-11-20T06:18:03;13.93;;;8.33;;
2111;SDS011;1062;52.538;13.400;2022-11-20T06:20:29;11.70;;;8.10;;
2111;SDS011;1062;52.538;13.400;2022-11-20T06:22:54;9.80;;;7.70;;
2111;SDS011;1062;52.538;13.400;2022-11-20T06:25:20;14.83;;;8.17;;
2111;SDS011;1062;52.538;13.400;2022-11-20T06:27:45;13.90;;;7.70;;
2111;SDS011;1062;52.538;13.400;2022-11-20T06:30:11;14.60;;;8.90;;
2111;SDS011;1062;52.538;13.400;2022-11-20T06:32:37;11.93;;;9.00;;
2111;SDS011;1062;52.538;13.400;2022-11-20T06:35:02;16.60;;;8.47;;
2111;SDS011;1062;52.538;13.400;2022-11-20T06:37:28;15.10;;;9.20;;
2111;SDS011;1062;52.538;13.400;2022-11-20T06:39:54;13.20;;;8.70;;
2111;SDS011;1062;52.538;13.400;2022-11-20T06:42:19;13.90;;;8.77;;
2111;SDS011;1062;52.538;13.400;2022-11-20T06:44:45;11.33;;;8.13;;
2111;SDS011;1062;52.538;13.400;2022-11-20T06:47:10;9.63;;;7.40;;
2111;SDS011;1062;52.538;13.400;2022-11-20T06:49:36;14.90;;;9.60;;
2111;SDS011;1062;52.538;13.400;2022-11-20T06:52:03;13.80;;;9.10;;
2111;SDS011;1062;52.538;13.400;2022-11-20T06:54:29;16.93;;;10.50;;
2111;SDS011;1062;52.538;13.400;2022-11-20T06:56:55;16.20;;;9.80;;
2111;SDS011;1062;52.538;13.400;2022-11-20T06:59:20;16.20;;;10.00;;
2111;SDS011;1062;52.538;13.400;2022-11-20T07:01:46;10.17;;;6.70;;
2111;SDS011;1062;52.538;13.400;2022-11-20T07:04:11;16.27;;;9.70;;
2111;SDS011;1062;52.538;13.400;2022-11-20T07:06:37;16.70;;;9.37;;
2111;SDS011;1062;52.538;13.400;2022-11-20T07:09:03;14.50;;;8.17;;
2111;SDS011;1062;52.538;13.400;2022-11-20T07:11:29;14.97;;;8.87;;
2111;SDS011;1062;52.538;13.400;2022-11-20T07:13:56;12.40;;;9.43;;
2111;SDS011;1062;52.538;13.400;2022-11-20T07:16:22;12.60;;;8.73;;
2111;SDS011;1062;52.538;13.400;2022-11-20T07:18:47;17.63;;;9.47;;
2111;SDS011;1062;52.538;13.400;2022-11-20T07:21:13;14.47;;;10.33;;
2111;SDS011;1062;52.538;13.400;2022-11-20T07:23:39;16.10;;;9.97;;
2111;SDS011;1062;52.538;13.400;2022-11-20T07:26:08;17.70;;;10.47;;
2111;SDS011;1062;52.538;13.400;2022-11-20T07:28:35;11.77;;;8.17;;
2111;SDS011;1062;52.538;13.400;2022-11-20T07:31:01;14.43;;;9.20;;
2111;SDS011;1062;52.538;13.400;2022-11-20T07:33:27;13.10;;;8.80;;
2111;SDS011;1062;52.538;13.400;2022-11-20T07:35:53;15.93;;;9.47;;
2111;SDS011;1062;52.538;13.400;2022-11-20T07:38:19;12.77;;;9.43;;
2111;SDS011;1062;52.538;13.400;2022-11-20T07:40:44;16.37;;;8.90;;
2111;SDS011;1062;52.538;13.400;2022-11-20T07:43:10;21.87;;;11.53;;
2111;SDS011;1062;52.538;13.400;2022-11-20T07:45:35;11.67;;;9.57;;
2111;SDS011;1062;52.538;13.400;2022-11-20T07:48:01;13.80;;;8.93;;
2111;SDS011;1062;52.538;13.400;2022-11-20T07:50:26;15.97;;;10.57;;
2111;SDS011;1062;52.538;13.400;2022-11-20T07:52:52;12.10;;;8.73;;
2111;SDS011;1062;52.538;13.400;2022-11-20T07:55:25;14.53;;;9.50;;
2111;SDS011;1062;52.538;13.400;2022-11-20T07:57:54;15.13;;;9.00;;
2111;SDS011;1062;52.538;13.400;2022-11-20T08:00:21;14.10;;;9.33;;
2111;SDS011;1062;52.538;13.400;2022-11-20T08:02:47;11.67;;;9.07;;
2111;SDS011;1062;52.538;13.400;2022-11-20T08:05:12;15.33;;;8.70;;
2111;SDS011;1062;52.538;13.400;2022-11-20T08:07:42;17.00;;;9.00;;
2111;SDS011;1062;52.538;13.400;2022-11-20T08:10:09;14.17;;;9.53;;
2111;SDS011;1062;52.538;13.400;2022-11-20T08:12:36;16.73;;;10.00;;
2111;SDS011;1062;52.538;13.400;2022-11-20T08:15:26;17.60;;;11.20;;
2111;SDS011;1062;52.538;13.400;2022-11-20T08:17:58;18.00;;;10.33;;
2111;SDS011;1062;52.538;13.400;2022-11-20T08:20:35;13.17;;;8.13;;
2111;SDS011;1062;52.538;13.400;2022-11-20T08:23:02;13.07;;;10.00;;
2111;SDS011;1062;52.538;13.400;2022-11-20T08:25:30;21.93;;;11.43;;
2111;SDS011;1062;52.538;13.400;2022-11-20T08:28:00;15.07;;;8.73;;
2111;SDS011;1062;52.538;13.400;2022-11-20T08:30:28;17.23;;;10.73;;
2111;SDS011;1062;52.538;13.400;2022-11-20T08:32:54;15.60;;;9.67;;
2111;SDS011;1062;52.538;13.400;2022-11-20T08:35:25;17.40;;;10.17;;
2111;SDS011;1062;52.538;13.400;2022-11-20T08:37:51;19.60;;;13.57;;
2111;SDS011;1062;52.538;13.400;2022-11-20T08:40:17;16.83;;;10.90;;
2111;SDS011;1062;52.538;13.400;2022-11-20T08:42:46;14.60;;;10.63;;
2111;SDS011;1062;52.538;13.400;2022-11-20T08:45:16;14.90;;;10.37;;
2111;SDS011;1062;52.538;13.400;2022-11-20T08:47:42;13.27;;;9.87;;
2111;SDS011;1062;52.538;13.400;2022-11-20T08:50:12;13.87;;;10.30;;
2111;SDS011;1062;52.538;13.400;2022-11-20T08:52:38;13.67;;;10.83;;
2111;SDS011;1062;52.538;13.400;2022-11-20T08:55:04;14.07;;;9.80;;
2111;SDS011;1062;52.538;13.400;2022-11-20T08:57:31;16.10;;;10.30;;
2111;SDS011;1062;52.538;13.400;2022-11-20T08:59:58;14.73;;;9.27;;
2111;SDS011;1062;52.538;13.400;2022-11-20T09:02:24;16.87;;;11.53;;
2111;SDS011;1062;52.538;13.400;2022-11-20T09:04:49;21.93;;;10.93;;
2111;SDS011;1062;52.538;13.400;2022-11-20T09:07:15;16.43;;;9.37;;
2111;SDS011;1062;52.538;13.400;2022-11-20T09:09:41;14.30;;;10.00;;
2111;SDS011;1062;52.538;13.400;2022-11-20T09:12:06;14.97;;;9.20;;
2111;SDS011;1062;52.538;13.400;2022-11-20T09:14:32;15.83;;;10.00;;
2111;SDS011;1062;52.538;13.400;2022-11-20T09:16:58;15.53;;;10.10;;
2111;SDS011;1062;52.538;13.400;2022-11-20T09:19:24;17.27;;;10.60;;
2111;SDS011;1062;52.538;13.400;2022-11-20T09:21:49;20.53;;;9.97;;
2111;SDS011;1062;52.538;13.400;2022-11-20T09:24:15;15.40;;;9.87;;
2111;SDS011;1062;52.538;13.400;2022-11-20T09:26:42;16.50;;;11.33;;
2111;SDS011;1062;52.538;13.400;2022-11-20T09:29:07;20.40;;;10.00;;
2111;SDS011;1062;52.538;13.400;2022-11-20T09:31:33;12.50;;;9.07;;
2111;SDS011;1062;52.538;13.400;2022-11-20T09:33:58;14.33;;;9.43;;
2111;SDS011;1062;52.538;13.400;2022-11-20T09:36:24;16.27;;;8.77;;
2111;SDS011;1062;52.538;13.400;2022-11-20T09:38:49;15.70;;;10.70;;
2111;SDS011;1062;52.538;13.400;2022-11-20T09:41:36;15.90;;;11.53;;
2111;SDS011;1062;52.538;13.400;2022-11-20T09:46:55;15.47;;;11.40;;
2111;SDS011;1062;52.538;13.400;2022-11-20T09:53:02;20.37;;;10.90;;
2111;SDS011;1062;52.538;13.400;2022-11-20T09:55:45;15.63;;;10.63;;
2111;SDS011;1062;52.538;13.400;2022-11-20T10:01:15;14.70;;;11.60;;
2111;SDS011;1062;52.538;13.400;2022-11-20T10:09:38;16.07;;;9.43;;
2111;SDS011;1062;52.538;13.400;2022-11-20T10:15:12;13.70;;;9.20;;
2111;SDS011;1062;52.538;13.400;2022-11-20T10:18:03;14.67;;;9.50;;
2111;SDS011;1062;52.538;13.400;2022-11-20T10:20:39;15.10;;;9.43;;
2111;SDS011;1062;52.538;13.400;2022-11-20T10:23:34;12.70;;;9.50;;
2111;SDS011;1062;52.538;13.400;2022-11-20T10:26:15;13.37;;;8.80;;
2111;SDS011;1062;52.538;13.400;2022-11-20T10:29:01;12.37;;;8.23;;
2111;SDS011;1062;52.538;13.400;2022-11-20T10:34:16;16.90;;;10.30;;
2111;SDS011;1062;52.538;13.400;2022-11-20T10:36:56;12.87;;;8.00;;
2111;SDS011;1062;52.538;13.400;2022-11-20T10:39:31;14.73;;;10.00;;
2111;SDS011;1062;52.538;13.400;2022-11-20T10:42:04;16.70;;;9.77;;
2111;SDS011;1062;52.538;13.400;2022-11-20T10:44:35;16.10;;;9.53;;
2111;SDS011;1062;52.538;13.400;2022-11-20T10:47:22;17.77;;;9.47;;
2111;SDS011;1062;52.538;13.400;2022-11-20T10:49:51;13.03;;;8.93;;
2111;SDS011;1062;52.538;13.400;2022-11-20T11:00:32;13.60;;;9.33;;
2111;SDS011;1062;52.538;13.400;2022-11-20T11:02:58;11.30;;;7.57;;
2111;SDS011;1062;52.538;13.400;2022-11-20T11:05:41;12.27;;;9.43;;
2111;SDS011;1062;52.538;13.400;2022-11-20T11:08:21;11.57;;;8.27;;
2111;SDS011;1062;52.538;13.400;2022-11-20T11:10:50;16.90;;;10.90;;
2111;SDS011;1062;52.538;13.400;2022-11-20T11:13:25;14.47;;;8.70;;
2111;SDS011;1062;52.538;13.400;2022-11-20T11:15:52;12.77;;;8.53;;
2111;SDS011;1062;52.538;13.400;2022-11-20T11:20:55;12.23;;;8.30;;
2111;SDS011;1062;52.538;13.400;2022-11-20T11:23:30;13.10;;;8.47;;
2111;SDS011;1062;52.538;13.400;2022-11-20T11:26:02;13.10;;;9.13;;
2111;SDS011;1062;52.538;13.400;2022-11-20T11:28:29;11.97;;;8.40;;
2111;SDS011;1062;52.538;13.400;2022-11-20T11:30:55;12.60;;;7.73;;
2111;SDS011;1062;52.538;13.400;2022-11-20T11:33:22;13.97;;;8.30;;
2111;SDS011;1062;52.538;13.400;2022-11-20T11:35:53;10.97;;;7.50;;
2111;SDS011;1062;52.538;13.400;2022-11-20T11:38:27;11.90;;;7.20;;
2111;SDS011;1062;52.538;13.400;2022-11-20T11:40:54;7.20;;;6.30;;
2111;SDS011;1062;52.538;13.400;2022-11-20T11:43:23;13.93;;;7.57;;
2111;SDS011;1062;52.538;13.400;2022-11-20T11:48:55;8.87;;;7.13;;
2111;SDS011;1062;52.538;13.400;2022-11-20T11:51:21;19.87;;;8.53;;
2111;SDS011;1062;52.538;13.400;2022-11-20T11:53:46;17.63;;;9.27;;
2111;SDS011;1062;52.538;13.400;2022-11-20T11:56:12;13.13;;;7.53;;
2111;SDS011;1062;52.538;13.400;2022-11-20T11:58:46;13.77;;;8.60;;
2111;SDS011;1062;52.538;13.400;2022-11-20T12:03:59;13.93;;;8.60;;
2111;SDS011;1062;52.538;13.400;2022-11-20T12:06:29;9.37;;;7.20;;
2111;SDS011;1062;52.538;13.400;2022-11-20T12:08:58;12.20;;;7.60;;
2111;SDS011;1062;52.538;13.400;2022-11-20T12:14:17;9.37;;;6.80;;
2111;SDS011;1062;52.538;13.400;2022-11-20T12:17:02;12.43;;;7.80;;
2111;SDS011;1062;52.538;13.400;2022-11-20T12:19:31;9.23;;;6.70;;
2111;SDS011;1062;52.538;13.400;2022-11-20T12:24:33;13.47;;;9.03;;
2111;SDS011;1062;52.538;13.400;2022-11-20T12:32:39;12.60;;;7.37;;
2111;SDS011;1062;52.538;13.400;2022-11-20T12:44:19;16.17;;;8.90;;
2111;SDS011;1062;52.538;13.400;2022-11-20T12:46:51;10.37;;;6.77;;
2111;SDS011;1062;52.538;13.400;2022-11-20T12:58:28;9.13;;;7.10;;
2111;SDS011;1062;52.538;13.400;2022-11-20T13:07:11;8.67;;;6.00;;
2111;SDS011;1062;52.538;13.400;2022-11-20T13:09:40;12.77;;;7.77;;
2111;SDS011;1062;52.538;13.400;2022-11-20T13:15:08;8.97;;;5.77;;
2111;SDS011;1062;52.538;13.400;2022-11-20T13:17:54;9.47;;;6.20;;
2111;SDS011;1062;52.538;13.400;2022-11-20T13:20:23;10.73;;;7.10;;
2111;SDS011;1062;52.538;13.400;2022-11-20T13:22:50;10.73;;;6.63;;
2111;SDS011;1062;52.538;13.400;2022-11-20T13:30:34;9.10;;;6.50;;
2111;SDS011;1062;52.538;13.400;2022-11-20T13:33:06;8.23;;;5.93;;
2111;SDS011;1062;52.538;13.400;2022-11-20T13:35:35;9.23;;;6.37;;
2111;SDS011;1062;52.538;13.400;2022-11-20T13:38:03;9.57;;;6.10;;
2111;SDS011;1062;52.538;13.400;2022-11-20T13:40:58;13.03;;;6.53;;
2111;SDS011;1062;52.538;13.400;2022-11-20T13:43:42;10.20;;;6.77;;
2111;SDS011;1062;52.538;13.400;2022-11-20T13:46:09;9.00;;;7.47;;
2111;SDS011;1062;52.538;13.400;2022-11-20T13:48:44;11.33;;;6.10;;
2111;SDS011;1062;52.538;13.400;2022-11-20T13:51:33;8.73;;;6.60;;
2111;SDS011;1062;52.538;13.400;2022-11-20T14:00:15;10.13;;;6.17;;
2111;SDS011;1062;52.538;13.400;2022-11-20T14:02:43;9.50;;;5.97;;
2111;SDS011;1062;52.538;13.400;2022-11-20T14:05:20;6.63;;;5.17;;
2111;SDS011;1062;52.538;13.400;2022-11-20T14:07:48;6.60;;;6.00;;
2111;SDS011;1062;52.538;13.400;2022-11-20T14:10:19;10.07;;;5.87;;
2111;SDS011;1062;52.538;13.400;2022-11-20T14:12:46;11.73;;;5.93;;
2111;SDS011;1062;52.538;13.400;2022-11-20T14:15:23;8.30;;;5.63;;
2111;SDS011;1062;52.538;13.400;2022-11-20T14:17:54;11.90;;;6.33;;
2111;SDS011;1062;52.538;13.400;2022-11-20T14:20:20;8.63;;;6.67;;
2111;SDS011;1062;52.538;13.400;2022-11-20T14:22:51;10.60;;;7.40;;
2111;SDS011;1062;52.538;13.400;2022-11-20T14:27:58;11.70;;;6.60;;
2111;SDS011;1062;52.538;13.400;2022-11-20T14:30:26;13.13;;;7.77;;
2111;SDS011;1062;52.538;13.400;2022-11-20T14:32:55;13.43;;;6.63;;
2111;SDS011;1062;52.538;13.400;2022-11-20T14:35:34;12.43;;;7.03;;
2111;SDS011;1062;52.538;13.400;2022-11-20T14:38:01;13.73;;;8.60;;
2111;SDS011;1062;52.538;13.400;2022-11-20T14:40:29;13.27;;;8.73;;
2111;SDS011;1062;52.538;13.400;2022-11-20T14:42:57;11.13;;;7.23;;
2111;SDS011;1062;52.538;13.400;2022-11-20T14:45:24;13.10;;;8.40;;
2111;SDS011;1062;52.538;13.400;2022-11-20T14:47:51;10.17;;;6.90;;
2111;SDS011;1062;52.538;13.400;2022-11-20T14:50:20;11.20;;;9.50;;
2111;SDS011;1062;52.538;13.400;2022-11-20T14:52:52;10.60;;;6.30;;
2111;SDS011;1062;52.538;13.400;2022-11-20T14:57:59;11.20;;;7.63;;
2111;SDS011;1062;52.538;13.400;2022-11-20T15:00:30;8.20;;;6.77;;
2111;SDS011;1062;52.538;13.400;2022-11-20T15:02:57;8.47;;;6.20;;
2111;SDS011;1062;52.538;13.400;2022-11-20T15:05:24;9.20;;;6.80;;
2111;SDS011;1062;52.538;13.400;2022-11-20T15:08:10;11.93;;;7.40;;
2111;SDS011;1062;52.538;13.400;2022-11-20T15:10:37;8.30;;;6.43;;
2111;SDS011;1062;52.538;13.400;2022-11-20T15:13:10;10.47;;;6.80;;
2111;SDS011;1062;52.538;13.400;2022-11-20T15:15:46;11.03;;;7.33;;
2111;SDS011;1062;52.538;13.400;2022-11-20T15:18:14;15.17;;;7.57;;
2111;SDS011;1062;52.538;13.400;2022-11-20T15:20:42;7.57;;;5.87;;
2111;SDS011;1062;52.538;13.400;2022-11-20T15:23:10;9.33;;;6.27;;
2111;SDS011;1062;52.538;13.400;2022-11-20T15:25:37;9.63;;;7.13;;
2111;SDS011;1062;52.538;13.400;2022-11-20T15:28:04;10.40;;;7.20;;
2111;SDS011;1062;52.538;13.400;2022-11-20T15:30:37;9.53;;;6.40;;
2111;SDS011;1062;52.538;13.400;2022-11-20T15:33:02;10.23;;;8.47;;
2111;SDS011;1062;52.538;13.400;2022-11-20T15:35:28;9.53;;;7.10;;
2111;SDS011;1062;52.538;13.400;2022-11-20T15:37:54;8.90;;;6.17;;
2111;SDS011;1062;52.538;13.400;2022-11-20T15:40:19;10.47;;;7.33;;
2111;SDS011;1062;52.538;13.400;2022-11-20T15:42:45;10.10;;;6.30;;
2111;SDS011;1062;52.538;13.400;2022-11-20T15:45:27;10.17;;;6.20;;
2111;SDS011;1062;52.538;13.400;2022-11-20T15:47:59;13.20;;;7.13;;
2111;SDS011;1062;52.538;13.400;2022-11-20T15:50:27;10.70;;;7.13;;
2111;SDS011;1062;52.538;13.400;2022-11-20T15:52:59;9.90;;;7.10;;
2111;SDS011;1062;52.538;13.400;2022-11-20T15:55:24;9.93;;;6.53;;
2111;SDS011;1062;52.538;13.400;2022-11-20T15:57:50;10.23;;;7.00;;
2111;SDS011;1062;52.538;13.400;2022-11-20T16:00:16;7.53;;;5.53;;
2111;SDS011;1062;52.538;13.400;2022-11-20T16:02:41;7.10;;;5.30;;
2111;SDS011;1062;52.538;13.400;2022-11-20T16:05:11;8.80;;;6.40;;
2111;SDS011;1062;52.538;13.400;2022-11-20T16:07:38;12.90;;;7.00;;
2111;SDS011;1062;52.538;13.400;2022-11-20T16:10:04;11.37;;;6.90;;
2111;SDS011;1062;52.538;13.400;2022-11-20T16:12:30;9.63;;;7.43;;
2111;SDS011;1062;52.538;13.400;2022-11-20T16:15:14;14.97;;;7.50;;
2111;SDS011;1062;52.538;13.400;2022-11-20T16:17:58;13.47;;;8.37;;
2111;SDS011;1062;52.538;13.400;2022-11-20T16:20:23;10.10;;;7.90;;
2111;SDS011;1062;52.538;13.400;2022-11-20T16:22:49;8.60;;;7.23;;
2111;SDS011;1062;52.538;13.400;2022-11-20T16:25:14;11.53;;;6.80;;
2111;SDS011;1062;52.538;13.400;2022-11-20T16:27:40;7.00;;;5.87;;
2111;SDS011;1062;52.538;13.400;2022-11-20T16:30:05;10.63;;;7.57;;
2111;SDS011;1062;52.538;13.400;2022-11-20T16:32:32;10.60;;;6.97;;
2111;SDS011;1062;52.538;13.400;2022-11-20T16:34:57;9.77;;;7.07;;
2111;SDS011;1062;52.538;13.400;2022-11-20T16:37:23;13.00;;;8.10;;
2111;SDS011;1062;52.538;13.400;2022-11-20T16:39:48;8.40;;;6.70;;
2111;SDS011;1062;52.538;13.400;2022-11-20T16:42:14;11.50;;;6.73;;
2111;SDS011;1062;52.538;13.400;2022-11-20T16:44:39;9.03;;;6.77;;